sensor_id;sensor_type;location;lat;lon;timestamp;pressure;altitude;pressure_sealevel;temperature;humidity
80629;BME280;69983;42.370;-71.210;2023-09-19T00:00:26;100308.87;;;24.94;26.19
80629;BME280;69983;42.370;-71.210;2023-09-19T00:02:27;100306.40;;;24.13;26.80
80629;BME280;69983;42.370;-71.210;2023-09-19T00:04:28;100307.26;;;23.38;27.06
80629;BME280;69983;42.370;-71.210;2023-09-19T00:06:39;100315.37;;;22.47;26.75
80629;BME280;69983;42.370;-71.210;2023-09-19T00:08:43;100321.16;;;22.76;25.80
80629;BME280;69983;42.370;-71.210;2023-09-19T00:10:50;100322.28;;;22.22;26.23
80629;BME280;69983;42.370;-71.210;2023-09-19T00:13:43;100318.66;;;23.80;24.91
80629;BME280;69983;42.370;-71.210;2023-09-19T00:20:44;100309.22;;;24.82;24.36
80629;BME280;69983;42.370;-71.210;2023-09-19T00:20:52;100293.58;;;22.45;25.26
80629;BME280;69983;42.370;-71.210;2023-09-19T00:23:04;100285.04;;;22.19;24.44
80629;BME280;69983;42.370;-71.210;2023-09-19T00:25:58;100284.98;;;21.90;25.22
80629;BME280;69983;42.370;-71.210;2023-09-19T00:27:48;100273.63;;;24.33;24.24
80629;BME280;69983;42.370;-71.210;2023-09-19T00:29:48;100269.13;;;24.56;24.82
80629;BME280;69983;42.370;-71.210;2023-09-19T00:31:49;100271.77;;;24.52;25.25
80629;BME280;69983;42.370;-71.210;2023-09-19T00:33:49;100274.53;;;23.74;26.17
80629;BME280;69983;42.370;-71.210;2023-09-19T00:35:50;100272.09;;;22.57;26.56
80629;BME280;69983;42.370;-71.210;2023-09-19T00:37:51;100269.77;;;22.82;26.44
80629;BME280;69983;42.370;-71.210;2023-09-19T00:39:51;100267.68;;;22.40;26.31
80629;BME280;69983;42.370;-71.210;2023-09-19T00:41:52;100266.02;;;22.06;26.89
80629;BME280;69983;42.370;-71.210;2023-09-19T00:43:52;100263.73;;;22.82;26.39
80629;BME280;69983;42.370;-71.210;2023-09-19T00:45:54;100264.09;;;23.05;26.15
80629;BME280;69983;42.370;-71.210;2023-09-19T00:47:53;100259.21;;;23.69;25.92
80629;BME280;69983;42.370;-71.210;2023-09-19T00:49:54;100255.00;;;23.44;26.00
80629;BME280;69983;42.370;-71.210;2023-09-19T00:51:54;100249.43;;;23.05;26.29
80629;BME280;69983;42.370;-71.210;2023-09-19T00:53:55;100246.43;;;22.24;26.42
80629;BME280;69983;42.370;-71.210;2023-09-19T00:55:54;100242.38;;;21.82;26.74
80629;BME280;69983;42.370;-71.210;2023-09-19T00:57:56;100242.50;;;21.49;26.82
80629;BME280;69983;42.370;-71.210;2023-09-19T00:59:56;100241.73;;;22.63;26.37
80629;BME280;69983;42.370;-71.210;2023-09-19T01:01:56;100237.12;;;22.89;26.09
80629;BME280;69983;42.370;-71.210;2023-09-19T01:03:56;100242.39;;;23.50;25.72
80629;BME280;69983;42.370;-71.210;2023-09-19T01:05:56;100239.92;;;23.14;25.98
80629;BME280;69983;42.370;-71.210;2023-09-19T01:07:57;100238.90;;;23.60;25.83
80629;BME280;69983;42.370;-71.210;2023-09-19T01:09:57;100235.83;;;23.34;26.02
80629;BME280;69983;42.370;-71.210;2023-09-19T01:12:02;100232.83;;;22.59;26.19
80629;BME280;69983;42.370;-71.210;2023-09-19T01:14:06;100231.46;;;22.34;26.35
80629;BME280;69983;42.370;-71.210;2023-09-19T01:16:07;100229.09;;;21.95;26.46
80629;BME280;69983;42.370;-71.210;2023-09-19T01:18:04;100225.85;;;22.26;26.49
80629;BME280;69983;42.370;-71.210;2023-09-19T01:20:23;100225.71;;;22.77;26.22
80629;BME280;69983;42.370;-71.210;2023-09-19T01:22:07;100223.36;;;23.25;25.94
80629;BME280;69983;42.370;-71.210;2023-09-19T01:24:26;100221.43;;;23.23;25.90
80629;BME280;69983;42.370;-71.210;2023-09-19T01:26:11;100219.19;;;23.37;25.91
80629;BME280;69983;42.370;-71.210;2023-09-19T01:30:09;100213.04;;;23.22;26.71
80629;BME280;69983;42.370;-71.210;2023-09-19T01:32:05;100208.01;;;22.90;26.54
80629;BME280;69983;42.370;-71.210;2023-09-19T01:34:03;100208.17;;;21.85;27.07
80629;BME280;69983;42.370;-71.210;2023-09-19T01:36:03;100206.10;;;21.52;27.04
80629;BME280;69983;42.370;-71.210;2023-09-19T01:38:04;100203.96;;;22.78;26.19
80629;BME280;69983;42.370;-71.210;2023-09-19T01:40:08;100200.98;;;23.30;25.64
80629;BME280;69983;42.370;-71.210;2023-09-19T01:42:11;100189.11;;;23.83;25.28
80629;BME280;69983;42.370;-71.210;2023-09-19T01:44:09;100189.89;;;24.36;24.96
80629;BME280;69983;42.370;-71.210;2023-09-19T01:46:12;100185.74;;;24.60;24.64
80629;BME280;69983;42.370;-71.210;2023-09-19T01:48:22;100184.96;;;24.36;24.73
80629;BME280;69983;42.370;-71.210;2023-09-19T01:50:29;100182.34;;;24.86;24.60
80629;BME280;69983;42.370;-71.210;2023-09-19T01:52:11;100188.18;;;24.74;24.82
80629;BME280;69983;42.370;-71.210;2023-09-19T01:54:11;100188.87;;;24.46;24.80
80629;BME280;69983;42.370;-71.210;2023-09-19T01:56:12;100188.53;;;23.93;24.82
80629;BME280;69983;42.370;-71.210;2023-09-19T01:58:16;100191.94;;;23.75;24.60
80629;BME280;69983;42.370;-71.210;2023-09-19T02:00:11;100187.90;;;23.70;24.50
80629;BME280;69983;42.370;-71.210;2023-09-19T02:02:12;100181.80;;;23.75;24.70
80629;BME280;69983;42.370;-71.210;2023-09-19T02:04:11;100172.20;;;24.37;24.30
80629;BME280;69983;42.370;-71.210;2023-09-19T02:06:14;100168.40;;;24.60;24.23
80629;BME280;69983;42.370;-71.210;2023-09-19T02:08:15;100164.35;;;24.85;24.18
80629;BME280;69983;42.370;-71.210;2023-09-19T02:10:13;100161.94;;;24.65;24.25
80629;BME280;69983;42.370;-71.210;2023-09-19T02:12:14;100157.21;;;25.20;24.17
80629;BME280;69983;42.370;-71.210;2023-09-19T02:14:14;100158.97;;;25.07;24.22
80629;BME280;69983;42.370;-71.210;2023-09-19T02:16:17;100160.95;;;24.47;24.37
80629;BME280;69983;42.370;-71.210;2023-09-19T02:18:14;100167.06;;;24.54;24.19
80629;BME280;69983;42.370;-71.210;2023-09-19T02:20:15;100160.99;;;24.51;24.14
80629;BME280;69983;42.370;-71.210;2023-09-19T02:22:16;100160.48;;;23.96;24.31
80629;BME280;69983;42.370;-71.210;2023-09-19T02:24:16;100157.84;;;24.65;24.08
80629;BME280;69983;42.370;-71.210;2023-09-19T02:26:16;100155.35;;;24.94;23.98
80629;BME280;69983;42.370;-71.210;2023-09-19T02:28:16;100151.89;;;25.07;24.01
80629;BME280;69983;42.370;-71.210;2023-09-19T02:30:16;100152.90;;;25.12;23.91
80629;BME280;69983;42.370;-71.210;2023-09-19T02:32:17;100151.41;;;25.21;23.97
80629;BME280;69983;42.370;-71.210;2023-09-19T02:34:18;100147.72;;;25.31;23.98
80629;BME280;69983;42.370;-71.210;2023-09-19T02:36:18;100148.53;;;25.30;24.10
80629;BME280;69983;42.370;-71.210;2023-09-19T02:38:19;100146.84;;;25.21;24.06
80629;BME280;69983;42.370;-71.210;2023-09-19T02:40:19;100142.45;;;25.07;24.23
80629;BME280;69983;42.370;-71.210;2023-09-19T02:42:20;100140.49;;;25.48;24.01
80629;BME280;69983;42.370;-71.210;2023-09-19T02:44:20;100142.23;;;25.41;24.11
80629;BME280;69983;42.370;-71.210;2023-09-19T02:46:21;100141.25;;;25.56;24.06
80629;BME280;69983;42.370;-71.210;2023-09-19T02:48:21;100140.30;;;25.47;24.23
80629;BME280;69983;42.370;-71.210;2023-09-19T02:50:22;100138.50;;;25.56;24.23
80629;BME280;69983;42.370;-71.210;2023-09-19T02:52:22;100138.05;;;25.53;24.30
80629;BME280;69983;42.370;-71.210;2023-09-19T02:54:23;100141.24;;;25.67;24.26
80629;BME280;69983;42.370;-71.210;2023-09-19T02:56:23;100138.55;;;25.95;24.31
80629;BME280;69983;42.370;-71.210;2023-09-19T02:58:24;100135.35;;;25.61;24.46
80629;BME280;69983;42.370;-71.210;2023-09-19T03:00:24;100129.26;;;25.75;24.40
80629;BME280;69983;42.370;-71.210;2023-09-19T03:02:25;100132.48;;;25.67;24.52
80629;BME280;69983;42.370;-71.210;2023-09-19T03:04:25;100131.87;;;25.40;24.55
80629;BME280;69983;42.370;-71.210;2023-09-19T03:06:26;100131.30;;;25.77;24.58
80629;BME280;69983;42.370;-71.210;2023-09-19T03:08:26;100133.05;;;25.62;24.69
80629;BME280;69983;42.370;-71.210;2023-09-19T03:10:26;100132.78;;;26.04;24.69
80629;BME280;69983;42.370;-71.210;2023-09-19T03:12:27;100136.96;;;25.94;24.86
80629;BME280;69983;42.370;-71.210;2023-09-19T03:14:27;100142.46;;;25.54;24.79
80629;BME280;69983;42.370;-71.210;2023-09-19T03:16:28;100147.77;;;24.84;25.18
80629;BME280;69983;42.370;-71.210;2023-09-19T03:18:28;100146.48;;;24.85;24.94
80629;BME280;69983;42.370;-71.210;2023-09-19T03:20:28;100143.92;;;24.19;25.32
80629;BME280;69983;42.370;-71.210;2023-09-19T03:22:29;100145.55;;;24.02;25.57
80629;BME280;69983;42.370;-71.210;2023-09-19T03:24:29;100150.63;;;24.50;25.47
80629;BME280;69983;42.370;-71.210;2023-09-19T03:26:30;100144.92;;;24.77;25.63
80629;BME280;69983;42.370;-71.210;2023-09-19T03:28:32;100150.59;;;22.63;26.06
80629;BME280;69983;42.370;-71.210;2023-09-19T03:30:30;100167.25;;;23.31;25.11
80629;BME280;69983;42.370;-71.210;2023-09-19T03:32:31;100172.19;;;23.07;25.10
80629;BME280;69983;42.370;-71.210;2023-09-19T03:34:32;100180.26;;;23.58;25.11
80629;BME280;69983;42.370;-71.210;2023-09-19T03:36:32;100181.08;;;23.74;24.85
80629;BME280;69983;42.370;-71.210;2023-09-19T03:38:32;100185.46;;;25.32;25.11
80629;BME280;69983;42.370;-71.210;2023-09-19T03:40:32;100190.95;;;25.61;25.48
80629;BME280;69983;42.370;-71.210;2023-09-19T03:42:33;100202.82;;;25.04;26.11
80629;BME280;69983;42.370;-71.210;2023-09-19T03:44:33;100204.98;;;24.99;26.34
80629;BME280;69983;42.370;-71.210;2023-09-19T03:46:34;100198.97;;;24.64;26.88
80629;BME280;69983;42.370;-71.210;2023-09-19T03:48:34;100205.90;;;24.26;26.51
80629;BME280;69983;42.370;-71.210;2023-09-19T03:50:34;100215.97;;;23.96;26.49
80629;BME280;69983;42.370;-71.210;2023-09-19T03:52:35;100212.45;;;23.72;26.36
80629;BME280;69983;42.370;-71.210;2023-09-19T03:54:36;100214.65;;;23.89;26.56
80629;BME280;69983;42.370;-71.210;2023-09-19T03:56:36;100220.22;;;24.23;26.73
80629;BME280;69983;42.370;-71.210;2023-09-19T03:58:36;100214.34;;;24.23;26.84
80629;BME280;69983;42.370;-71.210;2023-09-19T04:00:37;100196.66;;;24.21;27.02
80629;BME280;69983;42.370;-71.210;2023-09-19T04:02:38;100180.61;;;23.13;27.04
80629;BME280;69983;42.370;-71.210;2023-09-19T04:04:37;100170.69;;;22.87;26.90
80629;BME280;69983;42.370;-71.210;2023-09-19T04:06:38;100160.27;;;22.88;27.08
80629;BME280;69983;42.370;-71.210;2023-09-19T04:08:39;100157.24;;;23.54;26.51
80629;BME280;69983;42.370;-71.210;2023-09-19T04:10:38;100155.07;;;23.47;26.36
80629;BME280;69983;42.370;-71.210;2023-09-19T04:12:39;100161.37;;;25.33;26.86
80629;BME280;69983;42.370;-71.210;2023-09-19T04:14:39;100167.98;;;24.80;27.38
80629;BME280;69983;42.370;-71.210;2023-09-19T04:16:39;100174.60;;;24.62;27.73
80629;BME280;69983;42.370;-71.210;2023-09-19T04:18:40;100168.75;;;24.70;27.89
80629;BME280;69983;42.370;-71.210;2023-09-19T04:20:41;100161.17;;;24.36;28.37
80629;BME280;69983;42.370;-71.210;2023-09-19T04:22:41;100161.36;;;24.48;27.87
80629;BME280;69983;42.370;-71.210;2023-09-19T04:24:41;100156.05;;;25.03;27.64
80629;BME280;69983;42.370;-71.210;2023-09-19T04:26:42;100148.91;;;24.85;28.24
80629;BME280;69983;42.370;-71.210;2023-09-19T04:28:42;100149.17;;;25.08;27.96
80629;BME280;69983;42.370;-71.210;2023-09-19T04:30:43;100142.72;;;24.49;28.46
80629;BME280;69983;42.370;-71.210;2023-09-19T04:32:43;100148.83;;;24.87;28.20
80629;BME280;69983;42.370;-71.210;2023-09-19T04:34:44;100153.31;;;24.98;28.00
80629;BME280;69983;42.370;-71.210;2023-09-19T04:36:44;100151.07;;;24.71;27.80
80629;BME280;69983;42.370;-71.210;2023-09-19T04:38:45;100148.50;;;24.13;27.42
80629;BME280;69983;42.370;-71.210;2023-09-19T04:40:45;100143.46;;;23.88;27.48
80629;BME280;69983;42.370;-71.210;2023-09-19T04:42:50;100150.59;;;24.08;27.21
80629;BME280;69983;42.370;-71.210;2023-09-19T04:44:46;100152.44;;;23.74;27.91
80629;BME280;69983;42.370;-71.210;2023-09-19T04:46:47;100148.27;;;23.70;28.46
80629;BME280;69983;42.370;-71.210;2023-09-19T04:48:47;100136.05;;;24.10;28.42
80629;BME280;69983;42.370;-71.210;2023-09-19T04:50:49;100132.25;;;24.36;30.71
80629;BME280;69983;42.370;-71.210;2023-09-19T04:52:51;100126.66;;;24.22;28.60
80629;BME280;69983;42.370;-71.210;2023-09-19T04:54:49;100115.28;;;24.60;28.02
80629;BME280;69983;42.370;-71.210;2023-09-19T04:56:50;100108.54;;;25.13;27.35
80629;BME280;69983;42.370;-71.210;2023-09-19T04:58:50;100116.67;;;25.06;27.10
80629;BME280;69983;42.370;-71.210;2023-09-19T05:00:51;100124.65;;;25.07;26.96
80629;BME280;69983;42.370;-71.210;2023-09-19T05:02:51;100128.29;;;25.23;26.77
80629;BME280;69983;42.370;-71.210;2023-09-19T05:04:51;100140.18;;;25.41;26.59
80629;BME280;69983;42.370;-71.210;2023-09-19T05:06:51;100143.36;;;25.05;26.62
80629;BME280;69983;42.370;-71.210;2023-09-19T05:08:52;100143.59;;;25.04;26.42
80629;BME280;69983;42.370;-71.210;2023-09-19T05:10:52;100146.17;;;24.86;26.55
80629;BME280;69983;42.370;-71.210;2023-09-19T05:12:54;100151.29;;;25.21;26.49
80629;BME280;69983;42.370;-71.210;2023-09-19T05:14:52;100146.22;;;25.10;26.39
80629;BME280;69983;42.370;-71.210;2023-09-19T05:16:52;100147.08;;;25.16;26.37
80629;BME280;69983;42.370;-71.210;2023-09-19T05:18:53;100148.84;;;25.38;26.36
80629;BME280;69983;42.370;-71.210;2023-09-19T05:20:53;100145.73;;;25.02;26.25
80629;BME280;69983;42.370;-71.210;2023-09-19T05:22:59;100143.75;;;25.46;26.31
80629;BME280;69983;42.370;-71.210;2023-09-19T05:24:54;100136.73;;;25.31;26.46
80629;BME280;69983;42.370;-71.210;2023-09-19T05:26:54;100129.93;;;25.43;26.36
80629;BME280;69983;42.370;-71.210;2023-09-19T05:28:55;100123.52;;;24.92;26.62
80629;BME280;69983;42.370;-71.210;2023-09-19T05:30:56;100122.23;;;25.16;26.62
80629;BME280;69983;42.370;-71.210;2023-09-19T05:32:56;100124.33;;;25.12;26.08
80629;BME280;69983;42.370;-71.210;2023-09-19T05:34:56;100130.10;;;24.61;26.25
80629;BME280;69983;42.370;-71.210;2023-09-19T05:36:57;100134.00;;;24.44;25.92
80629;BME280;69983;42.370;-71.210;2023-09-19T05:39:03;100147.53;;;24.34;26.37
80629;BME280;69983;42.370;-71.210;2023-09-19T05:40:58;100164.75;;;24.63;25.95
80629;BME280;69983;42.370;-71.210;2023-09-19T05:42:59;100189.42;;;25.08;25.66
80629;BME280;69983;42.370;-71.210;2023-09-19T05:45:00;100196.06;;;25.10;25.96
80629;BME280;69983;42.370;-71.210;2023-09-19T05:46:59;100201.16;;;25.19;25.75
80629;BME280;69983;42.370;-71.210;2023-09-19T05:49:00;100224.47;;;25.22;25.81
80629;BME280;69983;42.370;-71.210;2023-09-19T05:51:01;100256.41;;;25.05;25.83
80629;BME280;69983;42.370;-71.210;2023-09-19T05:53:01;100271.11;;;24.97;25.96
80629;BME280;69983;42.370;-71.210;2023-09-19T05:55:01;100275.27;;;25.51;25.74
80629;BME280;69983;42.370;-71.210;2023-09-19T05:57:02;100275.93;;;25.41;25.69
80629;BME280;69983;42.370;-71.210;2023-09-19T05:59:02;100277.34;;;25.35;25.84
80629;BME280;69983;42.370;-71.210;2023-09-19T06:01:03;100281.32;;;25.18;25.80
80629;BME280;69983;42.370;-71.210;2023-09-19T06:03:03;100278.92;;;25.24;25.36
80629;BME280;69983;42.370;-71.210;2023-09-19T06:05:04;100276.66;;;24.95;25.31
80629;BME280;69983;42.370;-71.210;2023-09-19T06:07:04;100268.23;;;24.41;25.30
80629;BME280;69983;42.370;-71.210;2023-09-19T06:09:05;100270.09;;;24.26;24.82
80629;BME280;69983;42.370;-71.210;2023-09-19T06:11:05;100280.01;;;24.32;25.57
80629;BME280;69983;42.370;-71.210;2023-09-19T06:13:05;100276.98;;;24.83;25.04
80629;BME280;69983;42.370;-71.210;2023-09-19T06:15:06;100281.89;;;24.39;25.34
80629;BME280;69983;42.370;-71.210;2023-09-19T06:17:06;100282.17;;;24.75;25.35
80629;BME280;69983;42.370;-71.210;2023-09-19T06:19:06;100277.68;;;25.00;25.31
80629;BME280;69983;42.370;-71.210;2023-09-19T06:21:07;100282.97;;;24.45;25.12
80629;BME280;69983;42.370;-71.210;2023-09-19T06:23:07;100284.43;;;24.59;24.77
80629;BME280;69983;42.370;-71.210;2023-09-19T06:25:07;100286.83;;;24.02;24.96
80629;BME280;69983;42.370;-71.210;2023-09-19T06:27:09;100286.56;;;23.73;25.66
80629;BME280;69983;42.370;-71.210;2023-09-19T06:29:08;100282.06;;;24.16;25.16
80629;BME280;69983;42.370;-71.210;2023-09-19T06:31:08;100278.38;;;24.19;25.23
80629;BME280;69983;42.370;-71.210;2023-09-19T06:33:09;100283.11;;;24.38;25.37
80629;BME280;69983;42.370;-71.210;2023-09-19T06:35:09;100279.35;;;24.79;25.11
80629;BME280;69983;42.370;-71.210;2023-09-19T06:37:09;100280.58;;;24.85;25.18
80629;BME280;69983;42.370;-71.210;2023-09-19T06:39:09;100285.72;;;24.99;25.09
80629;BME280;69983;42.370;-71.210;2023-09-19T06:41:09;100281.87;;;24.63;25.06
80629;BME280;69983;42.370;-71.210;2023-09-19T06:43:10;100287.98;;;24.40;25.21
80629;BME280;69983;42.370;-71.210;2023-09-19T06:45:09;100283.21;;;23.97;25.16
80629;BME280;69983;42.370;-71.210;2023-09-19T06:47:09;100283.85;;;23.51;25.59
80629;BME280;69983;42.370;-71.210;2023-09-19T06:49:09;100285.37;;;24.04;25.25
80629;BME280;69983;42.370;-71.210;2023-09-19T06:51:09;100285.74;;;24.26;25.22
80629;BME280;69983;42.370;-71.210;2023-09-19T06:53:10;100288.68;;;24.43;25.19
80629;BME280;69983;42.370;-71.210;2023-09-19T06:55:10;100287.17;;;24.39;25.34
80629;BME280;69983;42.370;-71.210;2023-09-19T06:57:10;100287.13;;;24.34;25.50
80629;BME280;69983;42.370;-71.210;2023-09-19T06:59:10;100282.46;;;24.58;25.41
80629;BME280;69983;42.370;-71.210;2023-09-19T07:01:10;100284.86;;;24.85;25.31
80629;BME280;69983;42.370;-71.210;2023-09-19T07:03:10;100289.09;;;24.49;25.48
80629;BME280;69983;42.370;-71.210;2023-09-19T07:05:10;100290.31;;;24.78;25.53
80629;BME280;69983;42.370;-71.210;2023-09-19T07:07:10;100294.83;;;24.63;25.78
80629;BME280;69983;42.370;-71.210;2023-09-19T07:09:10;100295.67;;;24.67;25.85
80629;BME280;69983;42.370;-71.210;2023-09-19T07:11:10;100299.51;;;24.77;25.27
80629;BME280;69983;42.370;-71.210;2023-09-19T07:13:11;100304.14;;;24.20;25.23
80629;BME280;69983;42.370;-71.210;2023-09-19T07:15:11;100294.96;;;23.88;25.15
80629;BME280;69983;42.370;-71.210;2023-09-19T07:17:11;100294.45;;;23.69;25.55
80629;BME280;69983;42.370;-71.210;2023-09-19T07:19:11;100289.96;;;24.37;25.32
80629;BME280;69983;42.370;-71.210;2023-09-19T07:21:11;100294.55;;;24.14;25.41
80629;BME280;69983;42.370;-71.210;2023-09-19T07:23:11;100308.10;;;24.32;25.34
80629;BME280;69983;42.370;-71.210;2023-09-19T07:25:11;100307.33;;;24.43;25.36
80629;BME280;69983;42.370;-71.210;2023-09-19T07:27:11;100311.73;;;24.44;25.42
80629;BME280;69983;42.370;-71.210;2023-09-19T07:29:11;100317.31;;;24.83;25.18
80629;BME280;69983;42.370;-71.210;2023-09-19T07:31:11;100320.96;;;24.54;25.31
80629;BME280;69983;42.370;-71.210;2023-09-19T07:33:12;100323.67;;;24.69;25.43
80629;BME280;69983;42.370;-71.210;2023-09-19T07:35:11;100326.15;;;24.73;25.46
80629;BME280;69983;42.370;-71.210;2023-09-19T07:37:12;100326.28;;;24.83;25.43
80629;BME280;69983;42.370;-71.210;2023-09-19T07:39:12;100328.29;;;24.82;25.55
80629;BME280;69983;42.370;-71.210;2023-09-19T07:41:12;100335.32;;;24.76;25.61
80629;BME280;69983;42.370;-71.210;2023-09-19T07:43:12;100334.96;;;24.79;26.07
80629;BME280;69983;42.370;-71.210;2023-09-19T07:45:12;100338.61;;;24.76;25.52
80629;BME280;69983;42.370;-71.210;2023-09-19T07:47:12;100341.99;;;24.43;25.49
80629;BME280;69983;42.370;-71.210;2023-09-19T07:49:12;100342.76;;;24.14;25.31
80629;BME280;69983;42.370;-71.210;2023-09-19T07:51:12;100349.80;;;24.04;25.44
80629;BME280;69983;42.370;-71.210;2023-09-19T07:53:13;100355.45;;;24.18;25.44
80629;BME280;69983;42.370;-71.210;2023-09-19T07:55:13;100358.25;;;24.42;25.30
80629;BME280;69983;42.370;-71.210;2023-09-19T07:57:12;100363.15;;;24.46;25.36
80629;BME280;69983;42.370;-71.210;2023-09-19T07:59:12;100360.70;;;24.46;25.50
80629;BME280;69983;42.370;-71.210;2023-09-19T08:01:13;100364.43;;;24.49;25.60
80629;BME280;69983;42.370;-71.210;2023-09-19T08:03:13;100366.20;;;24.57;25.81
80629;BME280;69983;42.370;-71.210;2023-09-19T08:05:14;100371.95;;;24.68;25.55
80629;BME280;69983;42.370;-71.210;2023-09-19T08:07:13;100372.23;;;24.52;25.72
80629;BME280;69983;42.370;-71.210;2023-09-19T08:09:13;100377.96;;;24.57;25.52
80629;BME280;69983;42.370;-71.210;2023-09-19T08:11:13;100381.17;;;24.42;25.89
80629;BME280;69983;42.370;-71.210;2023-09-19T08:13:13;100383.82;;;24.17;25.95
80629;BME280;69983;42.370;-71.210;2023-09-19T08:15:14;100383.42;;;24.33;25.84
80629;BME280;69983;42.370;-71.210;2023-09-19T08:17:13;100380.40;;;24.07;26.11
80629;BME280;69983;42.370;-71.210;2023-09-19T08:19:13;100380.69;;;24.40;26.07
80629;BME280;69983;42.370;-71.210;2023-09-19T08:21:13;100378.72;;;24.17;26.53
80629;BME280;69983;42.370;-71.210;2023-09-19T08:23:14;100376.40;;;24.37;25.95
80629;BME280;69983;42.370;-71.210;2023-09-19T08:25:16;100372.68;;;24.13;25.69
80629;BME280;69983;42.370;-71.210;2023-09-19T08:27:14;100373.92;;;23.60;25.70
80629;BME280;69983;42.370;-71.210;2023-09-19T08:29:15;100376.56;;;23.26;26.31
80629;BME280;69983;42.370;-71.210;2023-09-19T08:31:14;100380.94;;;23.83;25.89
80629;BME280;69983;42.370;-71.210;2023-09-19T08:33:14;100384.80;;;23.47;26.07
80629;BME280;69983;42.370;-71.210;2023-09-19T08:35:14;100387.47;;;23.92;25.84
80629;BME280;69983;42.370;-71.210;2023-09-19T08:37:14;100389.55;;;24.00;25.83
80629;BME280;69983;42.370;-71.210;2023-09-19T08:39:14;100394.76;;;24.05;26.06
80629;BME280;69983;42.370;-71.210;2023-09-19T08:41:14;100394.54;;;23.98;26.00
80629;BME280;69983;42.370;-71.210;2023-09-19T08:43:14;100392.70;;;24.02;26.00
80629;BME280;69983;42.370;-71.210;2023-09-19T08:45:15;100399.03;;;24.28;25.81
80629;BME280;69983;42.370;-71.210;2023-09-19T08:47:16;100401.61;;;24.30;25.86
80629;BME280;69983;42.370;-71.210;2023-09-19T08:49:23;100404.50;;;24.22;25.65
80629;BME280;69983;42.370;-71.210;2023-09-19T08:51:21;100408.62;;;23.69;25.45
80629;BME280;69983;42.370;-71.210;2023-09-19T08:53:21;100410.65;;;23.42;25.74
80629;BME280;69983;42.370;-71.210;2023-09-19T08:55:16;100412.26;;;23.59;25.53
80629;BME280;69983;42.370;-71.210;2023-09-19T08:57:17;100416.24;;;23.63;25.59
80629;BME280;69983;42.370;-71.210;2023-09-19T08:59:16;100415.59;;;23.38;25.66
80629;BME280;69983;42.370;-71.210;2023-09-19T09:01:16;100419.98;;;24.03;25.62
80629;BME280;69983;42.370;-71.210;2023-09-19T09:03:16;100421.29;;;24.10;25.48
80629;BME280;69983;42.370;-71.210;2023-09-19T09:05:17;100422.42;;;23.83;25.59
80629;BME280;69983;42.370;-71.210;2023-09-19T09:07:18;100424.39;;;23.66;25.81
80629;BME280;69983;42.370;-71.210;2023-09-19T09:09:19;100424.71;;;23.55;25.97
80629;BME280;69983;42.370;-71.210;2023-09-19T09:11:17;100427.03;;;23.71;25.89
80629;BME280;69983;42.370;-71.210;2023-09-19T09:13:17;100430.03;;;24.02;25.94
80629;BME280;69983;42.370;-71.210;2023-09-19T09:15:19;100431.38;;;24.00;25.78
80629;BME280;69983;42.370;-71.210;2023-09-19T09:17:16;100433.21;;;24.30;25.39
80629;BME280;69983;42.370;-71.210;2023-09-19T09:19:16;100435.81;;;24.18;25.01
80629;BME280;69983;42.370;-71.210;2023-09-19T09:21:16;100442.23;;;23.66;25.70
80629;BME280;69983;42.370;-71.210;2023-09-19T09:23:16;100443.30;;;23.68;25.57
80629;BME280;69983;42.370;-71.210;2023-09-19T09:25:17;100445.65;;;23.60;25.72
80629;BME280;69983;42.370;-71.210;2023-09-19T09:27:17;100452.13;;;23.54;25.66
80629;BME280;69983;42.370;-71.210;2023-09-19T09:29:17;100454.35;;;23.41;25.86
80629;BME280;69983;42.370;-71.210;2023-09-19T09:31:23;100459.06;;;23.67;25.92
80629;BME280;69983;42.370;-71.210;2023-09-19T09:33:17;100462.81;;;23.71;25.97
80629;BME280;69983;42.370;-71.210;2023-09-19T09:35:17;100463.80;;;23.57;25.94
80629;BME280;69983;42.370;-71.210;2023-09-19T09:37:18;100465.44;;;23.70;25.89
80629;BME280;69983;42.370;-71.210;2023-09-19T09:39:30;100464.44;;;24.06;25.85
80629;BME280;69983;42.370;-71.210;2023-09-19T09:41:17;100461.86;;;24.06;25.90
80629;BME280;69983;42.370;-71.210;2023-09-19T09:43:29;100461.81;;;24.10;26.13
80629;BME280;69983;42.370;-71.210;2023-09-19T09:45:19;100466.02;;;24.19;26.12
80629;BME280;69983;42.370;-71.210;2023-09-19T09:49:23;100470.13;;;23.69;26.25
80629;BME280;69983;42.370;-71.210;2023-09-19T09:51:29;100477.54;;;23.65;26.32
80629;BME280;69983;42.370;-71.210;2023-09-19T09:53:21;100482.53;;;23.81;26.24
80629;BME280;69983;42.370;-71.210;2023-09-19T09:55:18;100484.67;;;23.92;26.19
80629;BME280;69983;42.370;-71.210;2023-09-19T09:57:18;100483.72;;;24.07;25.57
80629;BME280;69983;42.370;-71.210;2023-09-19T09:59:19;100495.72;;;23.30;25.91
80629;BME280;69983;42.370;-71.210;2023-09-19T10:01:18;100499.37;;;23.46;25.60
80629;BME280;69983;42.370;-71.210;2023-09-19T10:03:20;100505.07;;;23.38;25.88
80629;BME280;69983;42.370;-71.210;2023-09-19T10:05:20;100508.86;;;23.01;26.11
80629;BME280;69983;42.370;-71.210;2023-09-19T10:07:27;100511.48;;;23.54;26.15
80629;BME280;69983;42.370;-71.210;2023-09-19T10:09:19;100512.39;;;23.44;26.08
80629;BME280;69983;42.370;-71.210;2023-09-19T10:11:19;100515.12;;;23.48;26.14
80629;BME280;69983;42.370;-71.210;2023-09-19T10:13:35;100516.77;;;22.90;26.08
80629;BME280;69983;42.370;-71.210;2023-09-19T10:15:38;100510.05;;;23.62;25.09
80629;BME280;69983;42.370;-71.210;2023-09-19T10:17:38;100515.61;;;24.34;24.34
80629;BME280;69983;42.370;-71.210;2023-09-19T10:19:45;100520.00;;;24.30;24.20
80629;BME280;69983;42.370;-71.210;2023-09-19T10:21:38;100522.49;;;24.22;23.89